createdAt,value
2018-03-20T00:02:06.777Z,30.18
2018-03-20T00:04:34.210Z,30.12
2018-03-20T00:07:01.625Z,30.22
2018-03-20T00:09:29.198Z,30.15
2018-03-20T00:11:56.621Z,30.21
2018-03-20T00:14:24.125Z,30.18
2018-03-20T00:16:51.695Z,30.28
2018-03-20T00:19:19.150Z,30.20
2018-03-20T00:21:46.620Z,30.21
2018-03-20T00:24:14.182Z,30.24
2018-03-20T00:26:41.643Z,30.20
2018-03-20T00:29:09.106Z,30.21
2018-03-20T00:31:36.675Z,30.27
2018-03-20T00:34:04.130Z,30.17
2018-03-20T00:36:31.599Z,30.18
2018-03-20T00:38:59.153Z,30.14
2018-03-20T00:41:26.618Z,30.09
2018-03-20T00:43:54.038Z,30.13
2018-03-20T00:46:21.646Z,30.14
2018-03-20T00:48:49.066Z,30.13
2018-03-20T00:51:16.477Z,30.23
2018-03-20T00:53:44.133Z,30.13
2018-03-20T00:56:11.554Z,30.14
2018-03-20T00:58:38.981Z,30.11
2018-03-20T01:01:06.429Z,30.27
2018-03-20T01:03:34.094Z,30.13
2018-03-20T01:06:01.548Z,30.15
2018-03-20T01:08:29.005Z,30.20
2018-03-20T01:10:56.457Z,30.15
2018-03-20T01:13:23.886Z,30.17
2018-03-20T01:15:51.296Z,30.14
2018-03-20T01:18:18.753Z,30.11
2018-03-20T01:20:46.169Z,30.14
2018-03-20T01:23:13.682Z,30.15
2018-03-20T01:25:41.150Z,30.10
2018-03-20T01:28:08.605Z,30.14
2018-03-20T01:30:36.067Z,30.19
2018-03-20T01:33:03.630Z,30.12
2018-03-20T01:35:31.049Z,30.07
2018-03-20T01:37:58.472Z,30.08
2018-03-20T01:40:26.070Z,30.27
2018-03-20T01:42:53.577Z,30.12
2018-03-20T01:45:21.006Z,30.11
2018-03-20T01:47:48.610Z,30.07
2018-03-20T01:50:16.029Z,30.11
2018-03-20T01:52:43.460Z,30.00
2018-03-20T01:55:11.102Z,30.12
2018-03-20T01:57:38.513Z,30.05
2018-03-20T02:00:06.026Z,30.11
2018-03-20T02:02:33.580Z,30.16
2018-03-20T02:05:01.001Z,30.13
2018-03-20T02:07:28.510Z,30.23
2018-03-20T02:09:56.075Z,30.07
2018-03-20T02:12:23.494Z,30.23
2018-03-20T02:14:50.993Z,30.03
2018-03-20T02:17:18.561Z,30.23
2018-03-20T02:19:45.991Z,30.24
2018-03-20T02:22:13.493Z,29.99
2018-03-20T02:24:41.056Z,30.16
2018-03-20T02:27:08.470Z,30.06
2018-03-20T02:29:35.889Z,30.17
2018-03-20T02:32:03.442Z,30.02
2018-03-20T02:34:30.897Z,29.98
2018-03-20T02:36:58.361Z,29.99
2018-03-20T02:39:25.932Z,30.12
2018-03-20T02:41:53.533Z,30.09
2018-03-20T02:44:20.954Z,30.08
2018-03-20T02:46:49.230Z,30.16
2018-03-20T02:49:16.703Z,30.31
2018-03-20T02:51:44.121Z,30.02
2018-03-20T02:54:11.726Z,30.04
2018-03-20T02:56:39.145Z,30.04
2018-03-20T02:59:06.650Z,29.95
2018-03-20T03:01:34.118Z,29.96
2018-03-20T03:04:01.534Z,29.98
2018-03-20T03:06:29.037Z,30.07
2018-03-20T03:08:56.578Z,30.31
2018-03-20T03:11:24.057Z,30.16
2018-03-20T03:13:51.530Z,30.02
2018-03-20T03:16:19.089Z,29.97
2018-03-20T03:18:46.554Z,29.88
2018-03-20T03:21:13.978Z,30.02
2018-03-20T03:23:41.426Z,29.97
2018-03-20T03:26:08.850Z,30.11
2018-03-20T03:28:36.270Z,30.00
2018-03-20T03:31:03.867Z,29.88
2018-03-20T03:33:31.321Z,29.81
2018-03-20T03:35:58.782Z,29.80
2018-03-20T03:38:26.345Z,29.92
2018-03-20T03:40:53.772Z,29.76
2018-03-20T03:43:21.238Z,29.80
2018-03-20T03:45:48.841Z,29.87
2018-03-20T03:48:16.266Z,29.69
2018-03-20T03:50:43.762Z,29.75
2018-03-20T03:53:11.306Z,29.82
2018-03-20T03:55:38.721Z,29.81
2018-03-20T03:58:06.149Z,29.62
2018-03-20T04:00:33.709Z,29.74
2018-03-20T04:03:01.135Z,29.67
2018-03-20T04:05:28.642Z,29.70
2018-03-20T04:07:56.197Z,29.66
2018-03-20T04:10:23.666Z,29.83
2018-03-20T04:12:51.087Z,29.65
2018-03-20T04:15:18.621Z,29.79
2018-03-20T04:17:46.038Z,29.70
2018-03-20T04:20:13.457Z,29.65
2018-03-20T04:22:41.078Z,29.50
2018-03-20T04:25:08.547Z,29.42
2018-03-20T04:27:35.981Z,29.52
2018-03-20T04:30:03.574Z,29.49
2018-03-20T04:32:30.994Z,29.49
2018-03-20T04:34:58.490Z,29.44
2018-03-20T04:37:26.061Z,29.56
2018-03-20T04:39:53.473Z,29.57
2018-03-20T04:42:20.981Z,29.56
2018-03-20T04:44:48.550Z,29.39
2018-03-20T04:47:15.965Z,29.41
2018-03-20T04:49:43.469Z,29.46
2018-03-20T04:52:11.034Z,29.51
2018-03-20T04:54:38.453Z,29.37
2018-03-20T04:57:05.865Z,29.37
2018-03-20T04:59:33.421Z,29.46
2018-03-20T05:02:01.062Z,29.35
2018-03-20T05:04:28.809Z,29.35
2018-03-20T05:06:56.477Z,29.52
2018-03-20T05:09:23.982Z,29.41
2018-03-20T05:11:51.450Z,29.37
2018-03-20T05:14:19.004Z,29.43
2018-03-20T05:16:46.430Z,29.28
2018-03-20T05:22:38.818Z,29.45
2018-03-20T05:25:06.375Z,29.30
2018-03-20T05:27:33.803Z,29.28
2018-03-20T05:30:01.220Z,29.23
2018-03-20T05:32:28.836Z,29.06
2018-03-20T05:34:56.258Z,29.07
2018-03-20T05:37:23.674Z,28.81
2018-03-20T05:39:51.250Z,28.88
2018-03-20T05:42:18.665Z,28.87
2018-03-20T05:44:46.094Z,28.93
2018-03-20T05:47:28.580Z,29.14
2018-03-20T05:50:11.676Z,29.25
2018-03-20T05:52:39.258Z,29.22
2018-03-20T05:55:06.677Z,29.36
2018-03-20T05:57:34.189Z,29.25
2018-03-20T06:00:01.750Z,29.28
2018-03-20T06:02:29.212Z,29.16
2018-03-20T06:04:56.660Z,29.16
2018-03-20T06:07:24.338Z,29.11
2018-03-20T06:09:51.801Z,29.13
2018-03-20T06:12:19.257Z,29.24
2018-03-20T06:14:46.825Z,29.10
2018-03-20T06:17:14.294Z,29.15
2018-03-20T06:19:41.705Z,29.04
2018-03-20T06:22:09.322Z,29.04
2018-03-20T06:24:36.745Z,29.12
2018-03-20T06:27:04.181Z,28.96
2018-03-20T06:29:31.705Z,29.09
2018-03-20T06:31:59.126Z,29.08
2018-03-20T06:34:26.621Z,29.14
2018-03-20T06:36:54.188Z,29.07
2018-03-20T06:39:21.654Z,29.01
2018-03-20T06:41:49.213Z,29.07
2018-03-20T06:44:16.682Z,29.06
2018-03-20T06:46:44.096Z,29.04
2018-03-20T06:49:11.629Z,29.08
2018-03-20T06:51:39.065Z,29.04
2018-03-20T06:54:06.486Z,29.03
2018-03-20T06:56:34.094Z,29.45
2018-03-20T06:59:01.568Z,29.37
2018-03-20T07:01:28.964Z,29.19
2018-03-20T07:03:56.417Z,29.34
2018-03-20T07:06:23.838Z,29.38
2018-03-20T07:08:51.306Z,29.50
2018-03-20T07:11:18.854Z,29.56
2018-03-20T07:13:46.330Z,29.25
2018-03-20T07:16:13.868Z,29.72
2018-03-20T07:18:41.354Z,30.10
2018-03-20T07:21:08.819Z,29.82
2018-03-20T07:23:36.277Z,29.86
2018-03-20T07:26:03.897Z,29.84
2018-03-20T07:28:31.347Z,30.20
2018-03-20T07:30:58.770Z,29.70
2018-03-20T07:33:26.329Z,29.95
2018-03-20T07:35:54.006Z,29.81
2018-03-20T07:38:21.462Z,29.88
2018-03-20T07:40:49.030Z,29.83
2018-03-20T07:43:16.486Z,29.89
2018-03-20T07:45:43.911Z,29.86
2018-03-20T07:48:11.513Z,29.86
2018-03-20T07:50:38.934Z,29.80
2018-03-20T07:53:06.442Z,29.61
2018-03-20T07:55:33.893Z,29.68
2018-03-20T07:58:01.366Z,29.97
2018-03-20T08:00:28.821Z,30.17
2018-03-20T08:02:56.494Z,30.36
2018-03-20T08:05:23.908Z,29.96
2018-03-20T08:07:51.469Z,29.94
2018-03-20T08:10:19.086Z,30.41
2018-03-20T08:12:46.546Z,30.35
2018-03-20T08:15:13.966Z,29.78
2018-03-20T08:17:41.573Z,30.12
2018-03-20T08:20:08.994Z,29.89
2018-03-20T08:22:36.498Z,30.31
2018-03-20T08:25:04.062Z,29.71
2018-03-20T08:27:31.477Z,30.44
2018-03-20T08:29:58.962Z,30.01
2018-03-20T08:32:26.526Z,30.23
2018-03-20T08:34:54.023Z,30.29
2018-03-20T08:37:21.441Z,30.15
2018-03-20T08:39:48.941Z,30.11
2018-03-20T08:42:16.358Z,30.12
2018-03-20T08:44:43.787Z,30.30
2018-03-20T08:47:11.424Z,30.05
2018-03-20T08:49:38.834Z,29.70
2018-03-20T08:52:06.260Z,29.67
2018-03-20T08:54:33.799Z,29.58
2018-03-20T08:57:01.222Z,29.54
2018-03-20T08:59:28.637Z,29.34
2018-03-20T09:01:56.199Z,29.63
2018-03-20T09:04:23.661Z,29.67
2018-03-20T09:06:51.076Z,29.95
2018-03-20T09:09:18.685Z,29.75
2018-03-20T09:11:46.110Z,29.99
2018-03-20T09:14:13.535Z,29.75
2018-03-20T09:16:41.177Z,30.04
2018-03-20T09:19:08.594Z,29.20
2018-03-20T09:21:36.102Z,29.74
2018-03-20T09:24:03.664Z,29.61
2018-03-20T09:26:31.085Z,29.20
2018-03-20T09:28:58.502Z,29.71
2018-03-20T09:31:26.058Z,30.22
2018-03-20T09:33:53.483Z,29.82
2018-03-20T09:36:20.973Z,30.53
2018-03-20T09:38:48.624Z,30.01
2018-03-20T09:41:16.037Z,30.27
2018-03-20T09:43:43.464Z,30.55
2018-03-20T09:46:11.233Z,30.18
2018-03-20T09:48:38.653Z,30.84
2018-03-20T09:51:06.070Z,30.33
2018-03-20T09:53:33.617Z,30.45
2018-03-20T09:56:01.041Z,30.47
2018-03-20T09:58:28.551Z,30.09
2018-03-20T10:00:56.017Z,26.76
2018-03-20T10:03:23.469Z,28.12
2018-03-20T10:05:50.890Z,29.25
2018-03-20T10:08:18.497Z,29.42
2018-03-20T10:10:45.957Z,29.15
2018-03-20T10:13:13.387Z,28.43
2018-03-20T10:15:40.989Z,29.51
2018-03-20T10:18:08.452Z,29.82
2018-03-20T10:20:35.865Z,29.83
2018-03-20T10:23:03.478Z,29.93
2018-03-20T10:25:30.894Z,29.79
2018-03-20T10:27:58.398Z,29.81
2018-03-20T10:30:26.071Z,28.38
2018-03-20T10:32:53.534Z,27.00
2018-03-20T10:35:20.996Z,29.15
2018-03-20T10:37:48.551Z,29.42
2018-03-20T10:40:15.966Z,28.79
2018-03-20T10:42:43.473Z,28.48
2018-03-20T10:45:11.037Z,29.60
2018-03-20T10:47:38.462Z,30.01
2018-03-20T10:50:05.877Z,29.99
2018-03-20T10:52:33.437Z,30.53
2018-03-20T10:55:00.860Z,30.68
2018-03-20T10:57:28.282Z,32.47
2018-03-20T10:59:55.919Z,31.66
2018-03-20T11:02:28.857Z,31.34
2018-03-20T11:04:56.473Z,29.18
2018-03-20T11:07:23.936Z,28.43
2018-03-20T11:09:51.446Z,27.93
2018-03-20T11:12:19.089Z,27.17
2018-03-20T11:14:46.522Z,27.78
2018-03-20T11:17:13.946Z,27.95
2018-03-20T11:19:41.421Z,27.21
2018-03-20T11:22:08.839Z,26.89
2018-03-20T11:24:36.276Z,24.77
2018-03-20T11:27:03.829Z,24.48
2018-03-20T11:29:31.298Z,24.26
2018-03-20T11:31:58.721Z,24.30
2018-03-20T11:34:26.320Z,24.14
2018-03-20T11:36:53.746Z,25.65
2018-03-20T11:39:21.161Z,25.93
2018-03-20T11:41:48.710Z,26.19
2018-03-20T11:44:16.129Z,26.35
2018-03-20T11:46:43.551Z,26.64
2018-03-20T11:49:11.202Z,26.82
2018-03-20T11:51:38.661Z,26.98
2018-03-20T11:54:06.082Z,27.12
2018-03-20T11:56:33.681Z,27.21
2018-03-20T11:59:01.146Z,27.33
2018-03-20T12:01:28.608Z,27.43
2018-03-20T12:03:56.171Z,27.53
2018-03-20T12:06:23.638Z,27.59
2018-03-20T12:08:51.917Z,27.70
2018-03-20T12:11:19.490Z,27.73
2018-03-20T12:13:46.904Z,27.81
2018-03-20T12:16:14.410Z,27.90
2018-03-20T12:18:41.969Z,28.00
2018-03-20T12:21:09.434Z,27.93
2018-03-20T12:23:36.893Z,27.92
2018-03-20T12:26:04.372Z,27.95
2018-03-20T12:28:31.791Z,28.05
2018-03-20T12:30:59.285Z,28.02
2018-03-20T12:33:26.851Z,28.06
2018-03-20T12:35:54.308Z,28.06
2018-03-20T12:38:21.734Z,28.08
2018-03-20T12:40:49.273Z,28.11
2018-03-20T12:43:16.693Z,28.18
2018-03-20T12:45:44.262Z,28.18
2018-03-20T12:48:11.826Z,28.15
2018-03-20T12:50:39.245Z,28.18
2018-03-20T12:53:06.745Z,28.14
2018-03-20T12:55:34.320Z,28.12
2018-03-20T12:58:01.786Z,28.09
2018-03-20T13:00:29.201Z,28.08
2018-03-20T13:02:56.657Z,28.08
2018-03-20T13:05:24.178Z,28.06
2018-03-20T13:07:51.598Z,28.05
2018-03-20T13:10:19.190Z,28.00
2018-03-20T13:12:46.753Z,27.98
2018-03-20T13:15:14.209Z,25.50
2018-03-20T13:17:41.676Z,26.63
2018-03-20T13:20:09.238Z,26.98
2018-03-20T13:22:36.658Z,27.00
2018-03-20T13:25:04.135Z,27.51
2018-03-20T13:27:31.697Z,27.76
2018-03-20T13:29:59.203Z,27.79
2018-03-20T13:32:26.617Z,27.77
2018-03-20T13:34:54.218Z,28.47
2018-03-20T13:37:21.641Z,28.57
2018-03-20T13:39:49.062Z,28.60
2018-03-20T13:42:16.710Z,28.68
2018-03-20T13:44:44.129Z,28.51
2018-03-20T13:47:11.551Z,28.47
2018-03-20T13:49:39.198Z,28.24
2018-03-20T13:52:06.670Z,28.07
2018-03-20T13:54:34.125Z,28.06
2018-03-20T13:57:01.581Z,28.27
2018-03-20T13:59:29.042Z,28.26
2018-03-20T14:01:56.466Z,28.52
2018-03-20T14:04:24.893Z,28.76
2018-03-20T14:06:52.312Z,28.93
2018-03-20T14:09:19.733Z,29.01
2018-03-20T14:11:47.458Z,29.17
2018-03-20T14:14:14.944Z,29.32
2018-03-20T14:16:42.403Z,29.06
2018-03-20T14:19:09.896Z,29.16
2018-03-20T14:21:37.393Z,29.04
2018-03-20T14:24:04.993Z,29.31
2018-03-20T14:26:32.458Z,29.39
2018-03-20T14:28:59.922Z,29.55
2018-03-20T14:31:27.481Z,29.59
2018-03-20T14:33:54.958Z,29.69
2018-03-20T14:36:22.405Z,29.70
2018-03-20T14:38:49.986Z,29.67
2018-03-20T14:41:17.657Z,29.75
2018-03-20T14:43:45.822Z,29.42
2018-03-20T14:46:13.381Z,29.37
2018-03-20T14:48:40.850Z,29.99
2018-03-20T14:51:08.273Z,30.02
2018-03-20T14:53:41.932Z,28.00
2018-03-20T14:56:10.078Z,26.69
2018-03-20T14:58:37.508Z,26.02
2018-03-20T15:01:04.961Z,25.76
2018-03-20T15:03:32.386Z,26.65
2018-03-20T15:05:59.924Z,27.56
2018-03-20T15:08:27.469Z,28.25
2018-03-20T15:10:54.890Z,27.91
2018-03-20T15:13:22.784Z,28.23
2018-03-20T15:15:50.266Z,28.16
2018-03-20T15:18:17.767Z,27.97
2018-03-20T15:20:45.231Z,28.33
2018-03-20T15:23:12.792Z,28.33
2018-03-20T15:25:40.212Z,28.85
2018-03-20T15:28:07.718Z,28.65
2018-03-20T15:30:35.259Z,28.06
2018-03-20T15:33:02.751Z,28.95
2018-03-20T15:35:30.202Z,28.97
2018-03-20T15:37:57.778Z,30.49
2018-03-20T15:40:25.230Z,29.81
2018-03-20T15:42:52.690Z,29.79
2018-03-20T15:45:20.254Z,29.80
2018-03-20T15:47:47.798Z,30.00
2018-03-20T15:50:15.281Z,30.23
2018-03-20T15:52:42.846Z,30.56
2018-03-20T15:55:10.274Z,31.11
2018-03-20T15:57:37.694Z,29.04
2018-03-20T16:00:05.240Z,26.95
2018-03-20T16:02:32.666Z,28.02
2018-03-20T16:05:00.158Z,29.96
2018-03-20T16:07:27.719Z,29.33
2018-03-20T16:09:55.133Z,29.65
2018-03-20T16:12:22.554Z,30.00
2018-03-20T16:14:50.109Z,29.47
2018-03-20T16:17:17.534Z,29.46
2018-03-20T16:19:45.035Z,29.48
2018-03-20T16:22:12.599Z,29.36
2018-03-20T16:24:40.063Z,25.53
2018-03-20T16:27:07.524Z,26.96
2018-03-20T16:29:35.086Z,25.37
2018-03-20T16:32:02.514Z,29.23
2018-03-20T16:34:29.926Z,30.61
2018-03-20T16:36:57.552Z,31.87
2018-03-20T16:39:24.998Z,32.16
2018-03-20T16:41:52.409Z,32.74
2018-03-20T16:44:19.957Z,32.62
2018-03-20T16:46:47.382Z,30.53
2018-03-20T16:49:14.806Z,30.60
2018-03-20T16:51:42.453Z,30.85
2018-03-20T16:54:09.878Z,30.70
2018-03-20T16:56:37.368Z,30.30
2018-03-20T16:59:04.942Z,30.23
2018-03-20T17:01:32.361Z,30.19
2018-03-20T17:03:59.783Z,30.19
2018-03-20T17:06:27.425Z,30.16
2018-03-20T17:08:54.890Z,30.02
2018-03-20T17:11:22.349Z,30.05
2018-03-20T17:13:49.922Z,30.07
2018-03-20T17:16:17.361Z,29.98
2018-03-20T17:18:44.841Z,30.09
2018-03-20T17:21:12.307Z,30.32
2018-03-20T17:23:39.726Z,30.18
2018-03-20T17:26:07.137Z,30.39
2018-03-20T17:28:34.689Z,30.29
2018-03-20T17:31:02.131Z,30.81
2018-03-20T17:33:29.544Z,30.82
2018-03-20T17:35:57.180Z,30.76
2018-03-20T17:38:24.593Z,30.47
2018-03-20T17:40:52.018Z,30.64
2018-03-20T17:43:19.638Z,30.30
2018-03-20T17:45:47.125Z,30.46
2018-03-20T17:48:14.550Z,30.63
2018-03-20T17:50:42.153Z,30.30
2018-03-20T17:53:09.580Z,30.37
2018-03-20T17:55:36.993Z,30.26
2018-03-20T17:58:04.646Z,30.23
2018-03-20T18:00:32.065Z,30.37
2018-03-20T18:02:59.502Z,30.22
2018-03-20T18:05:27.076Z,30.28
2018-03-20T18:07:54.500Z,30.35
2018-03-20T18:10:22.166Z,30.28
2018-03-20T18:12:49.586Z,30.26
2018-03-20T18:15:17.003Z,30.37
2018-03-20T18:17:44.550Z,30.15
2018-03-20T18:20:12.019Z,30.18
2018-03-20T18:22:39.442Z,30.13
2018-03-20T18:25:07.032Z,30.12
2018-03-20T18:27:34.524Z,30.07
2018-03-20T18:30:01.962Z,30.35
2018-03-20T18:32:29.496Z,30.13
2018-03-20T18:34:56.989Z,30.11
2018-03-20T18:37:24.405Z,30.00
2018-03-20T18:39:52.052Z,30.03
2018-03-20T18:42:19.586Z,29.94
2018-03-20T18:44:47.001Z,29.67
2018-03-20T18:47:14.422Z,29.82
2018-03-20T18:49:42.081Z,29.74
2018-03-20T18:52:09.531Z,30.22
2018-03-20T18:54:36.932Z,30.36
2018-03-20T18:57:04.558Z,30.15
2018-03-20T18:59:32.017Z,30.13
2018-03-20T19:01:59.438Z,30.36
2018-03-20T19:04:26.927Z,30.30
2018-03-20T19:06:54.406Z,30.26
2018-03-20T19:09:21.821Z,30.51
2018-03-20T19:11:49.430Z,30.49
2018-03-20T19:14:16.858Z,30.93
2018-03-20T19:16:44.357Z,30.53
2018-03-20T19:19:11.821Z,30.54
2018-03-20T19:21:39.278Z,30.40
2018-03-20T19:24:06.846Z,30.55
2018-03-20T19:26:34.261Z,30.83
2018-03-20T19:29:01.770Z,30.32
2018-03-20T19:31:29.334Z,30.13
2018-03-20T19:33:56.758Z,30.15
2018-03-20T19:36:24.182Z,30.03
2018-03-20T19:38:51.730Z,30.21
2018-03-20T19:41:19.182Z,30.07
2018-03-20T19:43:46.645Z,30.06
2018-03-20T19:46:14.088Z,29.87
2018-03-20T19:48:41.512Z,31.47
2018-03-20T19:51:08.930Z,32.33
2018-03-20T19:53:36.386Z,32.01
2018-03-20T19:56:03.823Z,31.65
2018-03-20T19:58:31.242Z,32.45
2018-03-20T20:00:58.700Z,31.62
2018-03-20T20:03:26.145Z,31.54
2018-03-20T20:05:53.565Z,31.68
2018-03-20T20:08:21.062Z,31.97
2018-03-20T20:10:48.526Z,31.65
2018-03-20T20:13:15.992Z,31.93
2018-03-20T20:15:43.525Z,31.60
2018-03-20T20:18:10.941Z,31.79
2018-03-20T20:20:38.369Z,31.67
2018-03-20T20:23:05.866Z,31.48
2018-03-20T20:25:33.351Z,31.75
2018-03-20T20:28:00.742Z,31.38
2018-03-20T20:30:28.326Z,31.77
2018-03-20T20:32:55.780Z,31.62
2018-03-20T20:35:23.206Z,31.72
2018-03-20T20:37:50.689Z,31.61
2018-03-20T20:40:18.177Z,31.33
2018-03-20T20:42:45.678Z,31.67
2018-03-20T20:45:13.110Z,31.29
2018-03-20T20:47:40.542Z,31.86
2018-03-20T20:50:08.017Z,31.48
2018-03-20T20:52:35.587Z,31.58
2018-03-20T20:55:03.006Z,31.26
2018-03-20T20:57:30.525Z,31.33
2018-03-20T20:59:58.069Z,31.48
2018-03-20T21:02:25.541Z,31.32
2018-03-20T21:04:52.957Z,31.54
2018-03-20T21:07:20.413Z,31.39
2018-03-20T21:09:47.830Z,31.18
2018-03-20T21:12:15.281Z,31.20
2018-03-20T21:14:42.851Z,31.30
2018-03-20T21:17:10.273Z,31.23
2018-03-20T21:19:37.695Z,31.17
2018-03-20T21:22:05.350Z,31.17
2018-03-20T21:24:32.780Z,31.16
2018-03-20T21:27:00.216Z,31.08
2018-03-20T21:29:27.642Z,31.10
2018-03-20T21:31:55.062Z,31.40
2018-03-20T21:34:22.650Z,30.96
2018-03-20T21:36:50.070Z,30.97
2018-03-20T21:39:17.578Z,31.23
2018-03-20T21:41:45.138Z,31.09
2018-03-20T21:44:12.602Z,30.98
2018-03-20T21:46:40.031Z,31.00
2018-03-20T21:49:07.614Z,31.01
2018-03-20T21:51:35.033Z,30.92
2018-03-20T21:54:02.504Z,31.13
2018-03-20T21:56:30.009Z,30.92
2018-03-20T21:58:57.478Z,31.03
2018-03-20T22:01:24.897Z,30.89
2018-03-20T22:03:52.403Z,30.83
2018-03-20T22:06:19.817Z,30.71
2018-03-20T22:08:47.249Z,30.74
2018-03-20T22:11:14.790Z,30.69
2018-03-20T22:13:42.249Z,30.86
2018-03-20T22:16:09.670Z,30.67
2018-03-20T22:18:37.276Z,30.72
2018-03-20T22:21:04.698Z,31.00
2018-03-20T22:23:32.119Z,30.77
2018-03-20T22:25:59.758Z,30.55
2018-03-20T22:28:27.221Z,30.56
2018-03-20T22:30:54.646Z,30.54
2018-03-20T22:33:22.254Z,30.41
2018-03-20T22:35:49.719Z,30.44
2018-03-20T22:38:17.142Z,30.59
2018-03-20T22:40:44.597Z,30.73
2018-03-20T22:43:12.101Z,30.32
2018-03-20T22:45:39.557Z,30.52
2018-03-20T22:48:07.037Z,30.72
2018-03-20T22:50:34.458Z,30.62
2018-03-20T22:53:01.990Z,30.37
2018-03-20T22:55:29.518Z,30.73
2018-03-20T22:57:56.937Z,30.38
2018-03-20T23:00:30.229Z,30.56
2018-03-20T23:02:57.657Z,30.29
2018-03-20T23:05:25.138Z,30.59
2018-03-20T23:07:52.574Z,30.60
2018-03-20T23:10:19.996Z,30.41
2018-03-20T23:12:47.413Z,30.34
2018-03-20T23:15:14.990Z,30.30
2018-03-20T23:17:42.410Z,30.13
2018-03-20T23:20:09.830Z,30.21
2018-03-20T23:22:37.430Z,30.22
2018-03-20T23:25:04.894Z,30.04
2018-03-20T23:27:32.314Z,30.23
2018-03-20T23:29:59.767Z,30.27
2018-03-20T23:32:27.192Z,30.08
2018-03-20T23:34:54.626Z,30.13
2018-03-20T23:37:22.209Z,30.04
2018-03-20T23:39:49.673Z,29.89
2018-03-20T23:42:17.089Z,29.96
2018-03-20T23:44:44.694Z,29.91
2018-03-20T23:47:12.114Z,29.84
2018-03-20T23:49:39.540Z,29.87
2018-03-20T23:52:07.073Z,29.96
2018-03-20T23:54:34.547Z,29.95
2018-03-20T23:57:02.002Z,29.92
2018-03-20T23:59:29.571Z,29.79
